createdAt,value
2022-10-23T00:01:29.119Z,13.80
2022-10-23T00:04:00.625Z,14.10
2022-10-23T00:06:29.421Z,13.90
2022-10-23T00:08:56.623Z,13.90
2022-10-23T00:11:27.688Z,13.70
2022-10-23T00:13:58.523Z,13.90
2022-10-23T00:16:26.419Z,13.90
2022-10-23T00:18:53.408Z,13.70
2022-10-23T00:21:20.789Z,13.80
2022-10-23T00:23:47.775Z,13.80
2022-10-23T00:26:15.903Z,13.80
2022-10-23T00:28:47.011Z,13.80
2022-10-23T00:31:14.647Z,13.80
2022-10-23T00:33:42.551Z,13.70
2022-10-23T00:36:13.552Z,13.70
2022-10-23T00:38:43.695Z,13.80
2022-10-23T00:41:23.253Z,13.70
2022-10-23T00:44:03.889Z,13.60
2022-10-23T00:46:31.492Z,13.70
2022-10-23T00:48:59.380Z,13.50
2022-10-23T00:51:32.296Z,13.60
2022-10-23T00:54:23.038Z,13.50
2022-10-23T00:56:49.839Z,13.50
2022-10-23T00:59:16.824Z,13.60
2022-10-23T01:01:44.212Z,13.60
2022-10-23T01:04:11.620Z,13.50
2022-10-23T01:07:02.581Z,13.50
2022-10-23T01:09:58.985Z,13.50
2022-10-23T01:12:45.614Z,13.50
2022-10-23T01:15:43.580Z,13.50
2022-10-23T01:18:39.603Z,13.40
2022-10-23T01:21:14.315Z,13.50
2022-10-23T01:24:04.298Z,13.40
2022-10-23T01:27:15.168Z,13.40
2022-10-23T01:29:52.163Z,13.40
2022-10-23T01:32:40.566Z,13.20
2022-10-23T01:35:24.678Z,13.30
2022-10-23T01:38:11.436Z,13.40
2022-10-23T01:40:49.486Z,13.40
2022-10-23T01:43:32.448Z,13.30
2022-10-23T01:46:06.651Z,13.30
2022-10-23T01:48:37.921Z,13.30
2022-10-23T01:51:10.094Z,13.20
2022-10-23T01:53:42.475Z,13.20
2022-10-23T01:56:16.964Z,13.30
2022-10-23T01:58:47.407Z,13.30
2022-10-23T02:01:18.823Z,13.20
2022-10-23T02:03:52.526Z,13.20
2022-10-23T02:06:19.956Z,13.20
2022-10-23T02:08:47.336Z,13.20
2022-10-23T02:11:19.936Z,13.20
2022-10-23T02:14:04.201Z,13.20
2022-10-23T02:16:57.397Z,13.20
2022-10-23T02:19:52.354Z,13.20
2022-10-23T02:22:29.225Z,13.00
2022-10-23T02:25:13.936Z,13.10
2022-10-23T02:27:53.624Z,14.40
2022-10-23T02:30:23.769Z,13.00
2022-10-23T02:33:07.974Z,13.10
2022-10-23T02:35:35.568Z,13.00
2022-10-23T02:38:36.623Z,13.10
2022-10-23T02:41:46.923Z,12.90
2022-10-23T02:44:39.240Z,12.90
2022-10-23T02:47:32.420Z,12.90
2022-10-23T02:50:27.993Z,13.00
2022-10-23T02:53:23.104Z,12.90
2022-10-23T02:55:59.588Z,13.00
2022-10-23T02:58:56.607Z,12.90
2022-10-23T03:01:51.117Z,12.80
2022-10-23T03:04:21.004Z,12.90
2022-10-23T03:06:50.866Z,12.90
2022-10-23T03:09:18.244Z,12.80
2022-10-23T03:11:45.290Z,12.80
2022-10-23T03:14:14.197Z,12.90
2022-10-23T03:16:41.157Z,12.80
2022-10-23T03:19:09.762Z,12.90
2022-10-23T03:21:37.132Z,12.80
2022-10-23T03:24:08.320Z,12.80
2022-10-23T03:26:40.783Z,12.80
2022-10-23T03:29:07.787Z,12.90
2022-10-23T03:31:41.126Z,12.80
2022-10-23T03:34:11.182Z,12.80
2022-10-23T03:36:40.735Z,12.90
2022-10-23T03:39:09.591Z,12.70
2022-10-23T03:41:36.574Z,12.70
2022-10-23T03:46:31.773Z,12.70
2022-10-23T03:48:59.526Z,12.60
2022-10-23T03:51:27.567Z,12.50
2022-10-23T03:53:54.744Z,12.80
2022-10-23T03:56:22.001Z,12.60
2022-10-23T03:58:49.365Z,12.70
2022-10-23T04:01:16.604Z,12.70
2022-10-23T04:03:45.270Z,12.60
2022-10-23T04:06:12.310Z,12.60
2022-10-23T04:08:39.545Z,12.70
2022-10-23T04:11:13.089Z,12.60
2022-10-23T04:13:45.056Z,12.20
2022-10-23T04:16:12.242Z,12.60
2022-10-23T04:18:41.867Z,12.50
2022-10-23T04:21:10.855Z,12.60
2022-10-23T04:23:38.882Z,12.60
2022-10-23T04:26:11.326Z,12.60
2022-10-23T04:28:38.497Z,12.60
2022-10-23T04:31:05.694Z,12.40
2022-10-23T04:33:33.662Z,12.50
2022-10-23T04:36:00.627Z,12.50
2022-10-23T04:38:27.641Z,12.40
2022-10-23T04:40:54.657Z,12.40
2022-10-23T04:43:22.574Z,12.50
2022-10-23T04:45:50.246Z,12.50
2022-10-23T04:48:17.484Z,12.40
2022-10-23T04:51:06.268Z,12.40
2022-10-23T04:53:56.637Z,12.50
2022-10-23T04:56:55.732Z,12.50
2022-10-23T04:59:23.871Z,12.30
2022-10-23T05:01:51.080Z,12.50
2022-10-23T05:04:18.855Z,12.30
2022-10-23T05:07:11.976Z,12.50
2022-10-23T05:09:58.613Z,12.10
2022-10-23T05:12:37.256Z,12.40
2022-10-23T05:15:04.965Z,12.40
2022-10-23T05:17:44.359Z,12.40
2022-10-23T05:20:18.709Z,12.20
2022-10-23T05:22:46.904Z,12.30
2022-10-23T05:25:14.493Z,12.30
2022-10-23T05:27:47.508Z,12.30
2022-10-23T05:32:44.035Z,12.30
2022-10-23T05:35:17.556Z,12.30
2022-10-23T05:37:48.517Z,12.20
2022-10-23T05:40:20.630Z,12.20
2022-10-23T05:42:49.664Z,12.20
2022-10-23T05:45:21.481Z,12.20
2022-10-23T05:48:33.456Z,12.40
2022-10-23T05:51:23.139Z,12.10
2022-10-23T05:54:16.003Z,12.70
2022-10-23T05:56:58.210Z,12.10
2022-10-23T06:02:20.838Z,12.10
2022-10-23T06:04:57.041Z,12.00
2022-10-23T06:07:58.564Z,12.00
2022-10-23T06:10:26.976Z,12.10
2022-10-23T06:12:56.533Z,12.00
2022-10-23T06:15:24.728Z,12.10
2022-10-23T06:18:05.676Z,12.00
2022-10-23T06:20:37.976Z,12.00
2022-10-23T06:26:12.453Z,12.10
2022-10-23T06:31:23.584Z,11.90
2022-10-23T06:33:51.351Z,11.90
2022-10-23T06:36:18.620Z,12.10
2022-10-23T06:38:46.057Z,12.00
2022-10-23T06:41:17.644Z,12.00
2022-10-23T06:43:53.941Z,11.60
2022-10-23T06:46:26.994Z,11.90
2022-10-23T06:49:25.810Z,11.90
2022-10-23T06:51:55.516Z,11.70
2022-10-23T06:54:23.657Z,12.00
2022-10-23T06:56:51.051Z,12.10
2022-10-23T06:59:22.549Z,12.00
2022-10-23T07:01:51.737Z,12.00
2022-10-23T07:04:18.918Z,11.80
2022-10-23T07:06:46.128Z,12.10
2022-10-23T07:09:13.337Z,12.00
2022-10-23T07:11:52.265Z,11.90
2022-10-23T07:14:22.335Z,12.10
2022-10-23T07:16:49.831Z,12.00
2022-10-23T07:19:17.098Z,12.10
2022-10-23T07:21:53.423Z,12.10
2022-10-23T07:24:40.118Z,12.10
2022-10-23T07:27:39.755Z,12.10
2022-10-23T07:30:10.038Z,12.00
2022-10-23T07:32:46.278Z,12.10
2022-10-23T07:35:38.517Z,12.10
2022-10-23T07:38:10.264Z,12.20
2022-10-23T07:40:41.708Z,12.10
2022-10-23T07:43:10.781Z,11.90
2022-10-23T07:45:37.964Z,12.20
2022-10-23T07:48:17.079Z,12.10
2022-10-23T07:51:10.550Z,12.00
2022-10-23T07:53:43.227Z,12.00
2022-10-23T07:56:26.295Z,12.10
2022-10-23T08:01:56.313Z,11.90
2022-10-23T08:04:28.211Z,12.00
2022-10-23T08:07:01.135Z,12.20
2022-10-23T08:09:31.515Z,12.10
2022-10-23T08:11:58.555Z,10.00
2022-10-23T08:14:28.437Z,12.20
2022-10-23T08:16:55.983Z,12.10
2022-10-23T08:19:46.410Z,12.10
2022-10-23T08:22:14.137Z,12.20
2022-10-23T08:24:41.457Z,12.10
2022-10-23T08:27:08.447Z,12.10
2022-10-23T08:29:41.801Z,12.60
2022-10-23T08:32:09.124Z,12.20
2022-10-23T08:34:47.965Z,12.00
2022-10-23T08:37:15.051Z,12.20
2022-10-23T08:39:42.281Z,12.10
2022-10-23T08:42:26.234Z,10.60
2022-10-23T08:45:45.261Z,12.50
2022-10-23T08:48:48.274Z,12.80
2022-10-23T08:51:41.191Z,12.30
2022-10-23T08:54:21.050Z,12.30
2022-10-23T08:57:10.539Z,12.40
2022-10-23T08:59:54.812Z,12.90
2022-10-23T09:02:30.929Z,12.90
2022-10-23T09:04:58.816Z,12.80
2022-10-23T09:08:12.836Z,12.80
2022-10-23T09:11:02.676Z,12.90
2022-10-23T09:13:53.693Z,12.80
2022-10-23T09:16:41.677Z,13.20
2022-10-23T09:19:27.144Z,13.30
2022-10-23T09:21:55.894Z,13.10
2022-10-23T09:24:25.942Z,13.10
2022-10-23T09:26:54.865Z,13.00
2022-10-23T09:29:28.382Z,13.00
2022-10-23T09:31:59.374Z,12.90
2022-10-23T09:34:29.780Z,12.90
2022-10-23T09:37:21.646Z,12.80
2022-10-23T09:39:49.063Z,13.70
2022-10-23T09:42:25.391Z,13.80
2022-10-23T09:44:54.613Z,13.90
2022-10-23T09:47:25.291Z,14.10
2022-10-23T09:49:56.624Z,14.20
2022-10-23T09:52:36.074Z,14.10
2022-10-23T09:55:20.167Z,13.70
2022-10-23T09:57:48.019Z,13.50
2022-10-23T10:00:23.845Z,13.50
2022-10-23T10:03:04.783Z,13.70
2022-10-23T10:05:37.752Z,14.50
2022-10-23T10:08:40.322Z,15.50
2022-10-23T10:11:31.862Z,15.40
2022-10-23T10:14:27.000Z,15.20
2022-10-23T10:17:13.835Z,15.50
2022-10-23T10:20:13.576Z,15.80
2022-10-23T10:22:50.303Z,16.70
2022-10-23T10:25:38.083Z,17.50
2022-10-23T10:28:37.547Z,16.10
2022-10-23T10:31:38.354Z,16.20
2022-10-23T10:34:25.340Z,16.20
2022-10-23T10:37:50.141Z,16.70
2022-10-23T10:40:42.821Z,17.10
2022-10-23T10:43:30.333Z,16.60
2022-10-23T10:46:26.332Z,16.00
2022-10-23T10:49:10.789Z,15.60
2022-10-23T10:52:16.817Z,16.20
2022-10-23T10:54:56.091Z,17.40
2022-10-23T10:58:11.356Z,17.80
2022-10-23T11:00:41.727Z,17.70
2022-10-23T11:03:46.052Z,17.60
2022-10-23T11:06:18.450Z,17.60
2022-10-23T11:08:57.277Z,17.30
2022-10-23T11:11:33.496Z,16.60
2022-10-23T11:16:40.798Z,17.10
2022-10-23T11:19:28.044Z,17.50
2022-10-23T11:22:35.672Z,17.30
2022-10-23T11:25:12.332Z,18.00
2022-10-23T11:28:03.303Z,18.50
2022-10-23T11:30:38.147Z,18.40
2022-10-23T11:36:06.926Z,18.00
2022-10-23T11:38:36.985Z,18.30
2022-10-23T11:41:27.284Z,18.20
2022-10-23T11:44:05.650Z,18.10
2022-10-23T11:46:38.910Z,18.10
2022-10-23T11:49:20.824Z,18.00
2022-10-23T11:51:47.795Z,18.50
2022-10-23T11:54:17.968Z,18.00
2022-10-23T11:57:17.140Z,17.50
2022-10-23T11:59:52.918Z,17.10
2022-10-23T12:02:34.099Z,17.70
2022-10-23T12:05:22.629Z,17.90
2022-10-23T12:07:56.391Z,17.80
2022-10-23T12:10:30.842Z,18.00
2022-10-23T12:13:01.437Z,17.90
2022-10-23T12:15:28.910Z,18.10
2022-10-23T12:18:15.599Z,18.20
2022-10-23T12:20:50.485Z,18.10
2022-10-23T12:23:58.678Z,18.00
2022-10-23T12:26:50.656Z,17.80
2022-10-23T12:29:24.066Z,17.90
2022-10-23T12:32:25.903Z,18.50
2022-10-23T12:35:14.898Z,18.10
2022-10-23T12:38:12.291Z,18.40
2022-10-23T12:40:39.310Z,18.30
2022-10-23T12:43:25.249Z,18.30
2022-10-23T12:45:53.033Z,18.30
2022-10-23T12:48:24.085Z,18.20
2022-10-23T12:50:54.945Z,18.10
2022-10-23T12:53:24.204Z,18.30
2022-10-23T12:58:33.457Z,18.60
2022-10-23T13:01:07.401Z,19.00
2022-10-23T13:03:35.570Z,19.30
2022-10-23T13:06:03.801Z,19.40
2022-10-23T13:08:41.348Z,19.50
2022-10-23T13:11:28.186Z,20.60
2022-10-23T13:13:58.350Z,20.20
2022-10-23T13:16:27.251Z,20.10
2022-10-23T13:18:54.449Z,20.20
2022-10-23T13:21:24.080Z,20.40
2022-10-23T13:23:52.300Z,20.60
2022-10-23T13:26:31.108Z,20.50
2022-10-23T13:28:59.100Z,20.80
2022-10-23T13:31:33.606Z,20.40
2022-10-23T13:34:00.480Z,20.60
2022-10-23T13:36:30.823Z,19.90
2022-10-23T13:39:04.812Z,19.70
2022-10-23T13:41:43.732Z,20.40
2022-10-23T13:44:19.561Z,20.60
2022-10-23T13:46:48.231Z,20.40
2022-10-23T13:49:16.083Z,20.30
2022-10-23T13:51:50.213Z,19.90
2022-10-23T13:56:56.217Z,19.40
2022-10-23T13:59:24.050Z,19.10
2022-10-23T14:01:51.670Z,19.20
2022-10-23T14:04:20.118Z,18.90
2022-10-23T14:06:47.296Z,18.80
2022-10-23T14:09:17.457Z,18.90
2022-10-23T14:11:45.358Z,18.80
2022-10-23T14:14:12.579Z,18.80
2022-10-23T14:16:39.947Z,18.70
2022-10-23T14:19:07.915Z,18.70
2022-10-23T14:21:34.915Z,18.60
2022-10-23T14:26:30.384Z,18.50
2022-10-23T14:29:00.725Z,18.40
2022-10-23T14:31:31.472Z,18.30
2022-10-23T14:34:00.816Z,18.20
2022-10-23T14:36:38.458Z,18.30
2022-10-23T14:39:16.381Z,18.10
2022-10-23T14:41:43.508Z,18.10
2022-10-23T14:44:10.530Z,18.10
2022-10-23T14:46:38.434Z,18.00
2022-10-23T14:49:06.047Z,17.90
2022-10-23T14:51:33.413Z,17.90
2022-10-23T14:54:03.396Z,17.90
2022-10-23T14:56:33.863Z,17.90
2022-10-23T14:59:06.426Z,17.70
2022-10-23T15:01:48.209Z,18.00
2022-10-23T15:04:16.045Z,18.10
2022-10-23T15:06:44.193Z,17.80
2022-10-23T15:09:11.356Z,17.90
2022-10-23T15:11:38.366Z,17.70
2022-10-23T15:14:05.606Z,17.70
2022-10-23T15:16:32.869Z,17.70
2022-10-23T15:18:59.823Z,17.60
2022-10-23T15:21:26.852Z,18.00
2022-10-23T15:23:54.810Z,17.90
2022-10-23T15:26:23.293Z,17.50
2022-10-23T15:29:01.914Z,17.60
2022-10-23T15:31:38.169Z,17.70
2022-10-23T15:34:07.022Z,17.60
2022-10-23T15:36:34.829Z,17.50
2022-10-23T15:39:07.018Z,17.50
2022-10-23T15:41:36.149Z,17.30
2022-10-23T15:44:05.991Z,17.20
2022-10-23T15:46:33.163Z,17.50
2022-10-23T15:49:00.705Z,17.50
2022-10-23T15:51:28.137Z,17.50
2022-10-23T15:56:25.140Z,17.40
2022-10-23T15:58:52.561Z,17.30
2022-10-23T16:01:19.766Z,19.20
2022-10-23T16:06:18.039Z,17.70
2022-10-23T16:08:45.574Z,17.50
2022-10-23T16:11:28.728Z,17.40
2022-10-23T16:16:24.740Z,17.90
2022-10-23T16:21:21.885Z,17.70
2022-10-23T16:23:49.677Z,17.60
2022-10-23T16:26:17.822Z,17.60
2022-10-23T16:28:47.162Z,17.70
2022-10-23T16:31:20.660Z,17.70
2022-10-23T16:33:52.003Z,17.60
2022-10-23T16:36:20.066Z,17.30
2022-10-23T16:39:08.110Z,17.40
2022-10-23T16:41:54.060Z,17.10
2022-10-23T16:44:24.029Z,16.90
2022-10-23T16:46:58.724Z,16.80
2022-10-23T16:49:25.824Z,17.00
2022-10-23T16:51:52.818Z,17.20
2022-10-23T16:54:19.869Z,17.70
2022-10-23T16:56:48.348Z,17.10
2022-10-23T16:59:15.474Z,17.30
2022-10-23T17:04:10.576Z,17.20
2022-10-23T17:06:37.899Z,17.20
2022-10-23T17:09:05.734Z,17.30
2022-10-23T17:11:38.849Z,17.20
2022-10-23T17:14:11.890Z,17.30
2022-10-23T17:16:44.440Z,17.20
2022-10-23T17:19:39.709Z,17.60
2022-10-23T17:22:02.278Z,17.70
2022-10-23T17:24:29.375Z,17.00
2022-10-23T17:26:56.978Z,17.40
2022-10-23T17:29:23.963Z,17.20
2022-10-23T17:31:51.501Z,17.10
2022-10-23T17:34:21.979Z,17.50
2022-10-23T17:36:54.488Z,17.10
2022-10-23T17:39:25.973Z,15.70
2022-10-23T17:41:54.153Z,17.10
2022-10-23T17:44:21.252Z,17.10
2022-10-23T17:46:53.605Z,17.30
2022-10-23T17:49:22.163Z,17.50
2022-10-23T17:51:56.248Z,17.70
2022-10-23T17:54:25.812Z,17.80
2022-10-23T17:56:52.799Z,17.90
2022-10-23T17:59:19.969Z,17.80
2022-10-23T18:01:48.307Z,17.80
2022-10-23T18:04:17.734Z,17.30
2022-10-23T18:06:51.380Z,17.90
2022-10-23T18:09:20.768Z,17.30
2022-10-23T18:11:48.692Z,17.70
2022-10-23T18:14:18.355Z,17.50
2022-10-23T18:16:46.083Z,17.80
2022-10-23T18:19:15.694Z,17.70
2022-10-23T18:21:42.800Z,17.70
2022-10-23T18:26:40.326Z,17.70
2022-10-23T18:29:08.905Z,17.90
2022-10-23T18:31:40.110Z,18.00
2022-10-23T18:34:21.325Z,18.00
2022-10-23T18:36:50.085Z,18.20
2022-10-23T18:39:22.392Z,18.30
2022-10-23T18:41:54.061Z,18.40
2022-10-23T18:44:22.827Z,18.50
2022-10-23T18:46:50.673Z,18.30
2022-10-23T18:49:19.763Z,18.30
2022-10-23T18:51:46.902Z,18.50
2022-10-23T18:54:16.688Z,18.40
2022-10-23T18:56:44.174Z,17.50
2022-10-23T18:59:15.119Z,17.50
2022-10-23T19:01:43.230Z,17.70
2022-10-23T19:04:15.926Z,17.70
2022-10-23T19:06:44.037Z,17.70
2022-10-23T19:09:13.989Z,18.00
2022-10-23T19:11:42.379Z,18.00
2022-10-23T19:14:09.662Z,18.10
2022-10-23T19:17:03.776Z,17.90
2022-10-23T19:19:36.229Z,17.80
2022-10-23T19:22:04.364Z,17.70
2022-10-23T19:24:47.296Z,17.70
2022-10-23T19:27:14.700Z,16.90
2022-10-23T19:29:45.291Z,17.60
2022-10-23T19:32:12.731Z,17.70
2022-10-23T19:34:40.030Z,17.50
2022-10-23T19:37:07.213Z,17.30
2022-10-23T19:39:34.270Z,17.40
2022-10-23T19:42:01.318Z,17.10
2022-10-23T19:44:28.561Z,17.10
2022-10-23T19:46:55.623Z,17.20
2022-10-23T19:49:23.872Z,17.20
2022-10-23T19:51:51.663Z,17.10
2022-10-23T19:54:20.829Z,17.00
2022-10-23T19:56:49.280Z,16.90
2022-10-23T19:59:16.777Z,17.10
2022-10-23T20:01:46.485Z,17.80
2022-10-23T20:04:18.249Z,16.80
2022-10-23T20:06:45.863Z,16.90
2022-10-23T20:09:13.084Z,16.80
2022-10-23T20:11:40.659Z,16.80
2022-10-23T20:14:08.049Z,17.00
2022-10-23T20:16:38.296Z,16.80
2022-10-23T20:19:08.830Z,16.90
2022-10-23T20:21:37.244Z,16.80
2022-10-23T20:24:04.837Z,16.70
2022-10-23T20:26:31.801Z,16.60
2022-10-23T20:28:59.389Z,16.70
2022-10-23T20:31:28.108Z,16.50
2022-10-23T20:33:56.498Z,16.40
2022-10-23T20:36:29.349Z,16.40
2022-10-23T20:38:58.632Z,16.30
2022-10-23T20:41:28.397Z,16.70
2022-10-23T20:43:56.249Z,17.10
2022-10-23T20:46:23.653Z,17.30
2022-10-23T20:48:50.718Z,17.50
2022-10-23T20:51:21.357Z,17.40
2022-10-23T20:53:49.052Z,17.20
2022-10-23T20:56:23.551Z,17.90
2022-10-23T20:58:50.864Z,17.90
2022-10-23T21:01:18.276Z,17.70
2022-10-23T21:03:51.408Z,17.70
2022-10-23T21:06:19.786Z,18.20
2022-10-23T21:08:47.125Z,17.80
2022-10-23T21:11:16.887Z,18.00
2022-10-23T21:13:44.837Z,18.00
2022-10-23T21:16:24.856Z,18.10
2022-10-23T21:18:56.693Z,17.70
2022-10-23T21:21:24.818Z,18.00
2022-10-23T21:23:54.100Z,18.20
2022-10-23T21:26:23.799Z,18.40
2022-10-23T21:28:56.045Z,18.40
2022-10-23T21:31:40.245Z,18.10
2022-10-23T21:34:07.382Z,17.90
2022-10-23T21:36:43.498Z,17.90
2022-10-23T21:39:21.011Z,18.40
2022-10-23T21:41:48.585Z,18.30
2022-10-23T21:44:15.561Z,18.20
2022-10-23T21:46:42.607Z,18.70
2022-10-23T21:49:10.718Z,18.10
2022-10-23T21:51:38.419Z,18.30
2022-10-23T21:54:11.663Z,18.70
2022-10-23T21:56:45.197Z,18.80
2022-10-23T21:59:18.420Z,18.70
2022-10-23T22:01:47.586Z,19.00
2022-10-23T22:04:19.103Z,19.00
2022-10-23T22:06:48.549Z,19.00
2022-10-23T22:09:19.510Z,19.10
2022-10-23T22:11:51.050Z,18.90
2022-10-23T22:14:18.534Z,18.70
2022-10-23T22:16:45.898Z,18.60
2022-10-23T22:19:15.403Z,18.50
2022-10-23T22:21:43.071Z,18.40
2022-10-23T22:24:10.363Z,18.40
2022-10-23T22:26:45.144Z,18.80
2022-10-23T22:29:17.802Z,18.50
2022-10-23T22:31:48.804Z,18.60
2022-10-23T22:37:17.079Z,18.80
2022-10-23T22:39:44.095Z,18.50
2022-10-23T22:42:11.122Z,18.30
2022-10-23T22:44:38.117Z,17.90
2022-10-23T22:47:05.344Z,18.20
2022-10-23T22:49:32.449Z,18.40
2022-10-23T22:51:59.471Z,18.30
2022-10-23T22:54:26.558Z,18.50
2022-10-23T22:56:53.758Z,18.60
2022-10-23T22:59:20.827Z,18.40
2022-10-23T23:01:49.548Z,18.50
2022-10-23T23:07:08.177Z,18.40
2022-10-23T23:09:43.987Z,18.70
2022-10-23T23:12:13.290Z,18.10
2022-10-23T23:14:40.902Z,18.20
2022-10-23T23:17:08.455Z,18.20
2022-10-23T23:19:35.821Z,18.10
2022-10-23T23:22:03.297Z,18.20
2022-10-23T23:24:30.537Z,18.30
2022-10-23T23:26:57.705Z,18.00
2022-10-23T23:29:24.796Z,18.00
2022-10-23T23:31:51.990Z,17.90
2022-10-23T23:34:18.926Z,18.10
2022-10-23T23:36:45.955Z,17.90
2022-10-23T23:39:12.993Z,17.50
2022-10-23T23:41:40.060Z,17.90
2022-10-23T23:44:08.363Z,17.60
2022-10-23T23:46:35.473Z,17.80
2022-10-23T23:49:02.585Z,17.50
2022-10-23T23:51:29.627Z,17.90
2022-10-23T23:53:56.625Z,17.20
2022-10-23T23:56:23.695Z,17.10
2022-10-23T23:58:50.630Z,17.30
